Time;durP1;ratioP1;P1;durP2;ratioP2;P2;SDS_P1;SDS_P2;PMS_P1;PMS_P2;Temp;Humidity;BMP_temperature;BMP_pressure;BME280_temperature;BME280_humidity;BME280_pressure;Samples;Min_cycle;Max_cycle;Signal;HPM_P1;HPM_P2
2024/02/21 00:01:32;;;;;;;11.88;2.50;;;;;;;;;;5031813;28;20045;-68
2024/02/21 00:03:58;;;;;;;12.00;2.72;;;;;;;;;;5031489;28;20037;-69
2024/02/21 00:06:23;;;;;;;14.23;2.53;;;;;;;;;;5030994;28;20040;-68
2024/02/21 00:08:48;;;;;;;8.50;2.45;;;;;;;;;;5031270;28;20044;-67
2024/02/21 00:11:14;;;;;;;7.47;2.60;;;;;;;;;;5031782;28;20465;-68
2024/02/21 00:13:39;;;;;;;4.13;2.45;;;;;;;;;;5013596;28;20645;-68
2024/02/21 00:16:04;;;;;;;10.90;2.60;;;;;;;;;;5032060;28;20037;-68
2024/02/21 00:18:30;;;;;;;5.00;2.30;;;;;;;;;;5031369;28;20072;-68
2024/02/21 00:20:55;;;;;;;3.20;1.83;;;;;;;;;;5031211;28;20037;-68
2024/02/21 00:23:21;;;;;;;5.30;2.35;;;;;;;;;;5031168;28;20045;-68
2024/02/21 00:25:46;;;;;;;12.07;2.08;;;;;;;;;;5031822;28;20044;-69
2024/02/21 00:28:11;;;;;;;9.10;2.50;;;;;;;;;;5031137;28;20036;-69
2024/02/21 00:30:38;;;;;;;5.63;2.00;;;;;;;;;;5031189;28;20045;-68
2024/02/21 00:33:03;;;;;;;12.13;1.90;;;;;;;;;;5030742;28;20046;-69
2024/02/21 00:35:28;;;;;;;5.57;1.63;;;;;;;;;;5032732;28;20508;-68
2024/02/21 00:37:54;;;;;;;9.90;2.10;;;;;;;;;;5031870;28;20041;-68
2024/02/21 00:40:21;;;;;;;8.88;1.80;;;;;;;;;;5036939;28;20121;-69
2024/02/21 00:42:47;;;;;;;5.22;1.88;;;;;;;;;;5026103;28;20041;-68
2024/02/21 00:45:12;;;;;;;7.57;1.85;;;;;;;;;;5031072;28;20550;-69
2024/02/21 00:47:37;;;;;;;5.28;1.70;;;;;;;;;;5030691;28;20037;-67
2024/02/21 00:50:03;;;;;;;5.30;1.40;;;;;;;;;;5030974;28;20114;-67
2024/02/21 00:52:28;;;;;;;7.65;1.75;;;;;;;;;;5029734;28;20041;-68
2024/02/21 00:54:53;;;;;;;5.90;1.60;;;;;;;;;;5031094;28;20405;-68
2024/02/21 00:57:19;;;;;;;5.43;1.65;;;;;;;;;;5030900;28;20392;-68
2024/02/21 00:59:44;;;;;;;7.97;1.80;;;;;;;;;;5020316;28;20046;-68
2024/02/21 01:02:10;;;;;;;11.75;1.58;;;;;;;;;;5031056;28;20041;-67
2024/02/21 01:04:36;;;;;;;3.35;1.42;;;;;;;;;;5030441;28;20036;-69
2024/02/21 01:07:01;;;;;;;5.57;1.55;;;;;;;;;;5030062;28;20037;-68
2024/02/21 01:09:27;;;;;;;3.85;1.58;;;;;;;;;;5030666;28;20555;-68
2024/02/21 01:11:52;;;;;;;5.55;1.48;;;;;;;;;;5031233;28;20021;-68
2024/02/21 01:14:18;;;;;;;3.47;1.55;;;;;;;;;;5030208;28;20481;-67
2024/02/21 01:16:43;;;;;;;6.55;2.13;;;;;;;;;;5030754;28;20594;-67
2024/02/21 01:19:08;;;;;;;4.70;2.00;;;;;;;;;;5030482;28;20456;-67
2024/02/21 01:21:34;;;;;;;11.38;1.92;;;;;;;;;;5029433;28;20453;-69
2024/02/21 01:23:59;;;;;;;10.40;1.45;;;;;;;;;;5030087;28;20041;-69
2024/02/21 01:26:24;;;;;;;6.28;1.40;;;;;;;;;;5030594;28;20040;-68
2024/02/21 01:28:50;;;;;;;19.40;2.00;;;;;;;;;;5030515;28;20419;-67
2024/02/21 01:31:15;;;;;;;9.18;1.55;;;;;;;;;;5030103;28;20279;-68
2024/02/21 01:33:41;;;;;;;8.82;1.48;;;;;;;;;;5029893;28;20113;-67
2024/02/21 01:36:06;;;;;;;6.10;1.48;;;;;;;;;;5029744;28;20045;-68
2024/02/21 01:38:32;;;;;;;9.70;1.73;;;;;;;;;;5029552;28;20073;-68
2024/02/21 01:40:58;;;;;;;4.45;1.27;;;;;;;;;;5030271;28;20396;-68
2024/02/21 01:43:23;;;;;;;12.65;2.28;;;;;;;;;;5029197;28;20034;-68
2024/02/21 01:45:51;;;;;;;10.43;1.70;;;;;;;;;;5029772;28;20496;-67
2024/02/21 01:48:17;;;;;;;12.10;1.95;;;;;;;;;;5028826;28;20029;-68
2024/02/21 01:50:44;;;;;;;5.07;1.55;;;;;;;;;;5030055;28;20041;-67
2024/02/21 01:53:10;;;;;;;8.52;2.17;;;;;;;;;;5028190;28;20120;-68
2024/02/21 01:55:35;;;;;;;15.80;2.13;;;;;;;;;;5030172;28;20124;-68
2024/02/21 01:58:10;;;;;;;13.10;2.42;;;;;;;;;;5030319;28;20455;-67
2024/02/21 02:00:36;;;;;;;8.13;1.48;;;;;;;;;;5027860;28;20048;-68
2024/02/21 02:03:02;;;;;;;10.43;2.00;;;;;;;;;;5030048;28;20045;-68
2024/02/21 02:05:28;;;;;;;9.65;2.17;;;;;;;;;;5029569;28;20051;-67
2024/02/21 02:07:53;;;;;;;5.20;1.73;;;;;;;;;;5029524;28;20469;-68
2024/02/21 02:10:19;;;;;;;10.57;2.35;;;;;;;;;;5029478;28;20094;-68
2024/02/21 02:12:44;;;;;;;15.18;2.15;;;;;;;;;;5030056;28;20113;-69
2024/02/21 02:15:09;;;;;;;6.63;1.35;;;;;;;;;;5029933;28;20504;-68
2024/02/21 02:17:35;;;;;;;7.25;1.55;;;;;;;;;;5029177;28;20071;-68
2024/02/21 02:20:00;;;;;;;6.35;1.80;;;;;;;;;;5029969;28;20087;-68
2024/02/21 02:22:29;;;;;;;7.43;1.58;;;;;;;;;;5029389;28;20046;-68
2024/02/21 02:24:55;;;;;;;9.52;2.15;;;;;;;;;;5028469;28;20424;-69
2024/02/21 02:27:20;;;;;;;10.90;2.00;;;;;;;;;;5029715;28;20037;-68
2024/02/21 02:29:45;;;;;;;5.53;1.75;;;;;;;;;;5029875;28;20116;-68
2024/02/21 02:32:11;;;;;;;3.30;1.48;;;;;;;;;;5029223;28;20040;-68
2024/02/21 02:34:36;;;;;;;6.45;1.48;;;;;;;;;;5031313;28;20033;-67
2024/02/21 02:37:01;;;;;;;9.50;1.90;;;;;;;;;;5031983;28;20037;-68
2024/02/21 02:39:27;;;;;;;12.18;2.20;;;;;;;;;;5033529;28;20052;-68
2024/02/21 02:42:43;;;;;;;14.50;1.73;;;;;;;;;;5033559;28;20033;-68
2024/02/21 02:45:09;;;;;;;6.35;1.42;;;;;;;;;;5031971;28;20034;-68
2024/02/21 02:47:34;;;;;;;15.23;2.33;;;;;;;;;;5032863;28;20076;-68
2024/02/21 02:50:00;;;;;;;11.40;1.90;;;;;;;;;;5032271;28;20444;-68
2024/02/21 02:52:25;;;;;;;12.85;2.85;;;;;;;;;;5032363;28;20370;-68
2024/02/21 02:54:51;;;;;;;13.50;2.38;;;;;;;;;;5033283;28;20095;-68
2024/02/21 02:57:17;;;;;;;15.77;2.25;;;;;;;;;;5032246;28;20033;-69
2024/02/21 02:59:50;;;;;;;15.27;3.55;;;;;;;;;;5031742;28;20038;-68
2024/02/21 03:02:15;;;;;;;14.00;2.78;;;;;;;;;;5031567;28;20385;-68
2024/02/21 03:04:41;;;;;;;12.20;2.22;;;;;;;;;;5035308;28;20045;-68
2024/02/21 03:07:06;;;;;;;15.00;2.63;;;;;;;;;;5032441;28;20041;-68
2024/02/21 03:09:32;;;;;;;17.15;2.42;;;;;;;;;;5033098;28;20046;-68
2024/02/21 03:12:02;;;;;;;15.70;2.38;;;;;;;;;;5032738;28;20044;-68
2024/02/21 03:14:30;;;;;;;20.42;3.10;;;;;;;;;;5032979;28;20037;-68
2024/02/21 03:16:56;;;;;;;8.50;2.58;;;;;;;;;;5031494;28;20037;-68
2024/02/21 03:19:22;;;;;;;14.35;2.35;;;;;;;;;;5032351;28;20044;-68
2024/02/21 03:21:48;;;;;;;20.02;2.55;;;;;;;;;;5032741;28;20029;-67
2024/02/21 03:24:13;;;;;;;6.43;2.53;;;;;;;;;;5032063;28;20424;-68
2024/02/21 03:26:38;;;;;;;13.48;2.30;;;;;;;;;;5032613;28;20040;-68
2024/02/21 03:29:04;;;;;;;15.70;2.92;;;;;;;;;;5032948;28;20044;-68
2024/02/21 03:31:29;;;;;;;8.82;2.45;;;;;;;;;;5032787;28;20045;-68
2024/02/21 03:33:54;;;;;;;4.03;1.75;;;;;;;;;;5031252;28;20413;-68
2024/02/21 03:36:20;;;;;;;4.32;1.20;;;;;;;;;;5032431;28;20083;-67
2024/02/21 03:38:45;;;;;;;6.50;1.75;;;;;;;;;;5031981;28;20049;-68
2024/02/21 03:41:10;;;;;;;9.73;2.75;;;;;;;;;;5032653;28;20077;-67
2024/02/21 03:43:38;;;;;;;10.32;2.17;;;;;;;;;;5030585;28;20518;-68
2024/02/21 03:46:03;;;;;;;7.30;1.55;;;;;;;;;;5032209;28;20152;-67
2024/02/21 03:48:29;;;;;;;14.93;2.42;;;;;;;;;;5032117;28;20171;-68
2024/02/21 03:50:54;;;;;;;8.40;1.83;;;;;;;;;;5030962;28;20159;-69
2024/02/21 03:53:19;;;;;;;4.10;1.55;;;;;;;;;;5031360;28;20111;-69
2024/02/21 03:55:44;;;;;;;8.57;1.83;;;;;;;;;;5035844;28;20111;-67
2024/02/21 03:58:10;;;;;;;2.78;1.30;;;;;;;;;;5031688;28;20080;-67
2024/02/21 04:00:35;;;;;;;2.92;1.17;;;;;;;;;;5031789;28;20122;-68
2024/02/21 04:03:00;;;;;;;15.13;1.52;;;;;;;;;;5031884;28;20202;-68
2024/02/21 04:05:26;;;;;;;9.73;1.55;;;;;;;;;;5031452;28;20152;-68
2024/02/21 04:07:51;;;;;;;4.65;1.40;;;;;;;;;;5031095;28;20120;-69
2024/02/21 04:10:17;;;;;;;6.38;1.20;;;;;;;;;;5032128;28;20150;-68
2024/02/21 04:12:42;;;;;;;11.13;1.70;;;;;;;;;;5031620;28;20446;-69
2024/02/21 04:15:08;;;;;;;7.78;1.85;;;;;;;;;;5031971;28;20512;-68
2024/02/21 04:17:34;;;;;;;10.43;1.40;;;;;;;;;;5031499;28;20033;-68
2024/02/21 04:20:05;;;;;;;4.40;1.30;;;;;;;;;;5031675;28;20098;-69
2024/02/21 04:22:31;;;;;;;7.28;1.63;;;;;;;;;;5031231;28;20046;-68
2024/02/21 04:24:57;;;;;;;12.80;1.75;;;;;;;;;;5031534;28;20033;-68
2024/02/21 04:27:22;;;;;;;5.57;1.85;;;;;;;;;;5031872;28;20091;-68
2024/02/21 04:29:48;;;;;;;7.55;1.42;;;;;;;;;;5031078;28;20465;-68
2024/02/21 04:32:13;;;;;;;3.55;2.28;;;;;;;;;;5031295;28;20034;-68
2024/02/21 04:34:41;;;;;;;9.75;1.83;;;;;;;;;;5031035;28;20029;-67
2024/02/21 04:37:06;;;;;;;9.45;1.73;;;;;;;;;;5030718;28;20033;-68
2024/02/21 04:39:31;;;;;;;6.35;1.08;;;;;;;;;;5031161;28;20037;-68
2024/02/21 04:41:56;;;;;;;3.88;1.48;;;;;;;;;;5031573;28;20056;-68
2024/02/21 04:44:22;;;;;;;9.55;1.98;;;;;;;;;;5030797;28;20033;-68
2024/02/21 04:46:47;;;;;;;7.70;1.92;;;;;;;;;;5031211;28;20094;-68
2024/02/21 04:49:13;;;;;;;6.78;1.77;;;;;;;;;;5031155;28;20065;-68
2024/02/21 04:51:40;;;;;;;6.20;1.75;;;;;;;;;;5031105;28;20400;-68
2024/02/21 04:54:05;;;;;;;5.55;1.52;;;;;;;;;;5030123;28;20048;-68
2024/02/21 04:56:31;;;;;;;6.50;1.85;;;;;;;;;;5028550;28;20026;-68
2024/02/21 04:58:56;;;;;;;5.45;1.52;;;;;;;;;;5029575;28;20485;-68
2024/02/21 05:01:21;;;;;;;6.30;1.38;;;;;;;;;;5030141;28;20048;-69
2024/02/21 05:03:47;;;;;;;9.88;2.22;;;;;;;;;;5030062;28;20025;-68
2024/02/21 05:06:12;;;;;;;7.57;1.30;;;;;;;;;;5031283;28;20037;-68
2024/02/21 05:08:37;;;;;;;3.72;1.38;;;;;;;;;;5030625;28;20055;-69
2024/02/21 05:11:03;;;;;;;6.53;1.27;;;;;;;;;;5030608;28;20065;-68
2024/02/21 05:13:28;;;;;;;4.00;1.77;;;;;;;;;;5030775;28;20065;-68
2024/02/21 05:15:53;;;;;;;7.28;1.75;;;;;;;;;;5030227;28;20569;-68
2024/02/21 05:18:20;;;;;;;12.75;1.95;;;;;;;;;;5030745;28;20470;-67
2024/02/21 05:20:45;;;;;;;6.47;1.38;;;;;;;;;;5030097;28;20052;-69
2024/02/21 05:23:11;;;;;;;6.20;1.52;;;;;;;;;;5027191;28;20033;-68
2024/02/21 05:25:36;;;;;;;7.10;1.95;;;;;;;;;;5029022;28;20025;-69
2024/02/21 05:28:03;;;;;;;9.07;1.50;;;;;;;;;;5029253;28;20033;-67
2024/02/21 05:30:28;;;;;;;8.70;1.85;;;;;;;;;;5029180;28;20122;-68
2024/02/21 05:32:53;;;;;;;7.60;1.83;;;;;;;;;;5029990;28;20072;-69
2024/02/21 05:35:19;;;;;;;6.13;1.60;;;;;;;;;;5029726;28;20033;-68
2024/02/21 05:37:46;;;;;;;4.15;1.65;;;;;;;;;;5030202;28;20103;-68
2024/02/21 05:40:13;;;;;;;12.15;1.85;;;;;;;;;;5029846;28;20397;-67
2024/02/21 05:42:38;;;;;;;6.18;2.00;;;;;;;;;;5030319;28;20442;-68
2024/02/21 05:45:04;;;;;;;7.30;2.00;;;;;;;;;;5030016;28;20061;-68
2024/02/21 05:47:29;;;;;;;8.35;2.08;;;;;;;;;;5029599;28;20041;-69
2024/02/21 05:49:54;;;;;;;8.20;2.53;;;;;;;;;;5030227;28;20468;-67
2024/02/21 05:52:20;;;;;;;3.58;1.40;;;;;;;;;;5030342;28;20469;-68
2024/02/21 05:54:45;;;;;;;3.72;1.83;;;;;;;;;;5029792;28;20038;-67
2024/02/21 05:57:11;;;;;;;6.72;1.30;;;;;;;;;;5030150;28;20061;-69
2024/02/21 05:59:40;;;;;;;9.02;2.38;;;;;;;;;;5029890;28;20037;-68
2024/02/21 06:02:05;;;;;;;11.43;2.50;;;;;;;;;;5029481;28;20116;-68
2024/02/21 06:04:30;;;;;;;5.18;1.80;;;;;;;;;;5028773;28;20117;-68
2024/02/21 06:06:56;;;;;;;8.95;2.08;;;;;;;;;;5029800;28;20049;-67
2024/02/21 06:09:21;;;;;;;6.10;1.90;;;;;;;;;;5034441;28;20021;-68
2024/02/21 06:11:48;;;;;;;8.80;1.80;;;;;;;;;;5033786;28;20041;-68
2024/02/21 06:14:13;;;;;;;7.72;2.17;;;;;;;;;;5033911;28;20037;-68
2024/02/21 06:16:39;;;;;;;3.03;1.52;;;;;;;;;;5033607;28;20033;-69
2024/02/21 06:19:04;;;;;;;4.75;1.48;;;;;;;;;;5043126;28;20045;-69
2024/02/21 06:21:29;;;;;;;8.25;2.70;;;;;;;;;;5040907;28;20457;-69
2024/02/21 06:23:55;;;;;;;4.35;1.20;;;;;;;;;;5036254;28;20051;-67
2024/02/21 06:26:20;;;;;;;3.08;0.82;;;;;;;;;;5032363;28;20094;-68
2024/02/21 06:28:46;;;;;;;9.27;1.55;;;;;;;;;;5033811;28;20064;-69
2024/02/21 06:31:12;;;;;;;1.92;0.90;;;;;;;;;;5033610;28;20102;-68
2024/02/21 06:33:37;;;;;;;14.18;1.80;;;;;;;;;;5033268;28;20076;-67
2024/02/21 06:36:03;;;;;;;3.65;1.10;;;;;;;;;;5033794;28;20050;-69
2024/02/21 06:38:28;;;;;;;6.50;1.75;;;;;;;;;;5033588;28;20130;-68
2024/02/21 06:40:54;;;;;;;5.68;1.10;;;;;;;;;;5033169;28;20030;-69
2024/02/21 06:43:20;;;;;;;8.82;1.20;;;;;;;;;;5033721;28;20067;-68
2024/02/21 06:45:50;;;;;;;5.30;1.15;;;;;;;;;;5032635;28;20512;-67
2024/02/21 06:48:16;;;;;;;4.72;1.30;;;;;;;;;;5032441;28;20113;-68
2024/02/21 06:50:41;;;;;;;8.23;1.25;;;;;;;;;;5031935;28;20045;-68
2024/02/21 06:53:07;;;;;;;1.23;0.80;;;;;;;;;;5033633;28;20044;-68
2024/02/21 06:55:32;;;;;;;2.47;1.05;;;;;;;;;;5033060;28;20041;-68
2024/02/21 06:57:57;;;;;;;5.85;1.05;;;;;;;;;;5032863;28;20037;-68
2024/02/21 07:00:23;;;;;;;6.05;1.30;;;;;;;;;;5033262;28;20036;-68
2024/02/21 07:02:48;;;;;;;5.63;0.90;;;;;;;;;;5031796;28;20436;-69
2024/02/21 07:05:14;;;;;;;3.67;0.90;;;;;;;;;;5032239;28;20045;-69
2024/02/21 07:07:40;;;;;;;11.07;1.40;;;;;;;;;;5033123;28;20037;-67
2024/02/21 07:10:06;;;;;;;9.10;0.93;;;;;;;;;;5033312;28;20038;-68
2024/02/21 07:12:31;;;;;;;3.22;0.82;;;;;;;;;;5032650;28;20041;-67
2024/02/21 07:14:56;;;;;;;4.95;1.20;;;;;;;;;;5031945;28;20543;-67
2024/02/21 07:17:22;;;;;;;6.03;1.10;;;;;;;;;;5032565;28;20099;-70
2024/02/21 07:19:47;;;;;;;6.07;1.00;;;;;;;;;;5031537;28;20045;-67
2024/02/21 07:22:13;;;;;;;7.63;1.52;;;;;;;;;;5033171;28;20041;-69
2024/02/21 07:24:38;;;;;;;5.32;1.10;;;;;;;;;;5032862;28;20044;-68
2024/02/21 07:27:04;;;;;;;6.43;1.10;;;;;;;;;;5031057;28;20099;-68
2024/02/21 07:29:30;;;;;;;2.03;0.90;;;;;;;;;;5024137;28;20571;-69
2024/02/21 07:31:56;;;;;;;3.83;1.10;;;;;;;;;;5032620;28;20048;-67
2024/02/21 07:34:21;;;;;;;8.85;1.17;;;;;;;;;;5017050;28;20042;-67
2024/02/21 07:36:46;;;;;;;4.15;1.20;;;;;;;;;;5031778;28;20714;-67
2024/02/21 07:39:12;;;;;;;10.02;1.42;;;;;;;;;;5034115;28;20594;-68
2024/02/21 07:41:38;;;;;;;9.15;1.60;;;;;;;;;;5033622;28;20128;-68
2024/02/21 07:44:04;;;;;;;6.47;1.52;;;;;;;;;;5031105;28;20029;-69
2024/02/21 07:46:30;;;;;;;8.23;2.70;;;;;;;;;;5031540;28;20124;-69
2024/02/21 07:48:55;;;;;;;5.15;1.60;;;;;;;;;;5032245;28;20052;-68
2024/02/21 07:51:20;;;;;;;6.10;1.23;;;;;;;;;;5032111;28;20026;-68
2024/02/21 07:53:47;;;;;;;3.75;1.10;;;;;;;;;;5031464;28;20440;-67
2024/02/21 07:56:12;;;;;;;4.40;1.27;;;;;;;;;;5013938;28;20034;-68
2024/02/21 07:58:38;;;;;;;5.20;1.25;;;;;;;;;;5028493;28;20037;-69
2024/02/21 08:01:03;;;;;;;1.35;0.73;;;;;;;;;;5030485;28;20129;-68
2024/02/21 08:03:29;;;;;;;5.35;1.20;;;;;;;;;;5032073;28;20038;-68
2024/02/21 08:05:54;;;;;;;6.28;1.90;;;;;;;;;;5031800;28;20473;-69
2024/02/21 08:08:21;;;;;;;8.68;2.30;;;;;;;;;;5031599;28;20056;-68
2024/02/21 08:10:48;;;;;;;6.50;1.85;;;;;;;;;;5030554;28;20045;-68
2024/02/21 08:13:13;;;;;;;7.80;1.40;;;;;;;;;;5035814;28;20028;-68
2024/02/21 08:15:39;;;;;;;4.35;1.15;;;;;;;;;;5016458;28;20503;-68
2024/02/21 08:18:05;;;;;;;5.40;1.38;;;;;;;;;;5031272;28;20037;-69
2024/02/21 08:20:30;;;;;;;9.10;1.02;;;;;;;;;;5028667;28;20132;-68
2024/02/21 08:22:56;;;;;;;2.88;0.63;;;;;;;;;;5032053;28;20121;-67
2024/02/21 08:25:21;;;;;;;8.82;1.38;;;;;;;;;;5030374;28;20041;-68
2024/02/21 08:27:46;;;;;;;4.40;1.45;;;;;;;;;;5030806;28;20033;-67
2024/02/21 08:30:12;;;;;;;5.18;1.13;;;;;;;;;;5024264;28;20470;-68
2024/02/21 08:32:37;;;;;;;5.45;1.42;;;;;;;;;;5030156;28;20025;-69
2024/02/21 08:35:03;;;;;;;4.85;0.80;;;;;;;;;;5030835;28;20033;-69
2024/02/21 08:37:30;;;;;;;5.10;1.10;;;;;;;;;;5029665;28;20468;-68
2024/02/21 08:39:55;;;;;;;1.23;0.70;;;;;;;;;;5024351;28;20045;-68
2024/02/21 08:42:20;;;;;;;5.07;0.98;;;;;;;;;;5015351;28;20032;-69
2024/02/21 08:44:46;;;;;;;2.15;0.50;;;;;;;;;;5028817;28;20037;-69
2024/02/21 08:47:11;;;;;;;7.70;1.17;;;;;;;;;;5029721;28;20048;-68
2024/02/21 08:49:37;;;;;;;3.15;1.08;;;;;;;;;;5030894;28;20037;-69
2024/02/21 08:52:03;;;;;;;3.42;0.80;;;;;;;;;;5030296;28;20040;-69
2024/02/21 08:54:28;;;;;;;1.10;0.57;;;;;;;;;;5009303;28;20053;-70
2024/02/21 08:56:54;;;;;;;3.20;0.63;;;;;;;;;;5029179;28;20429;-68
2024/02/21 08:59:20;;;;;;;6.40;0.52;;;;;;;;;;5029922;28;20037;-67
2024/02/21 09:01:46;;;;;;;10.80;0.93;;;;;;;;;;5028570;28;20041;-70
2024/02/21 09:04:12;;;;;;;2.17;0.60;;;;;;;;;;5026317;28;20408;-68
2024/02/21 09:06:41;;;;;;;9.23;0.88;;;;;;;;;;5025499;28;20752;-69
2024/02/21 09:09:08;;;;;;;3.30;0.52;;;;;;;;;;5009531;28;20049;-69
2024/02/21 09:11:34;;;;;;;5.85;0.90;;;;;;;;;;5009953;28;20033;-68
2024/02/21 09:13:59;;;;;;;2.88;0.80;;;;;;;;;;5010141;28;20172;-68
2024/02/21 09:16:24;;;;;;;3.83;0.77;;;;;;;;;;5009910;28;20121;-69
2024/02/21 09:18:50;;;;;;;3.30;0.80;;;;;;;;;;5010330;28;20382;-68
2024/02/21 09:21:15;;;;;;;2.35;0.45;;;;;;;;;;5009301;28;20033;-68
2024/02/21 09:23:40;;;;;;;0.55;0.30;;;;;;;;;;5009661;28;20037;-68
2024/02/21 09:26:06;;;;;;;4.40;0.77;;;;;;;;;;5010594;28;20029;-68
2024/02/21 09:28:33;;;;;;;6.93;0.85;;;;;;;;;;5010488;28;20030;-71
2024/02/21 09:30:58;;;;;;;0.60;0.50;;;;;;;;;;5009687;28;20159;-68
2024/02/21 09:33:23;;;;;;;1.33;0.38;;;;;;;;;;5009752;28;20116;-67
2024/02/21 09:35:49;;;;;;;5.32;0.63;;;;;;;;;;5010434;28;20064;-69
2024/02/21 09:38:15;;;;;;;1.95;0.38;;;;;;;;;;5003106;28;20394;-69
2024/02/21 09:40:42;;;;;;;3.55;0.60;;;;;;;;;;4987696;28;20144;-69
2024/02/21 09:43:07;;;;;;;3.55;0.60;;;;;;;;;;5004250;28;20073;-68
2024/02/21 09:45:34;;;;;;;1.98;0.52;;;;;;;;;;5002373;28;20564;-69
2024/02/21 09:48:19;;;;;;;4.60;1.13;;;;;;;;;;5002491;28;20532;-68
2024/02/21 09:50:45;;;;;;;4.50;1.15;;;;;;;;;;5005797;28;20052;-68
2024/02/21 09:53:14;;;;;;;5.10;0.70;;;;;;;;;;5004515;28;20041;-68
2024/02/21 09:55:41;;;;;;;4.97;0.50;;;;;;;;;;5018275;28;20045;-68
2024/02/21 09:58:07;;;;;;;2.75;0.50;;;;;;;;;;5021330;28;20504;-68
2024/02/21 10:00:33;;;;;;;2.28;0.40;;;;;;;;;;5006019;28;20034;-68
2024/02/21 10:02:59;;;;;;;1.75;0.60;;;;;;;;;;5005836;28;20515;-69
2024/02/21 10:05:25;;;;;;;4.13;0.60;;;;;;;;;;5020559;28;20092;-68
2024/02/21 10:07:51;;;;;;;0.70;0.40;;;;;;;;;;4999466;28;20038;-68
2024/02/21 10:10:16;;;;;;;1.50;0.43;;;;;;;;;;5005257;28;20042;-69
2024/02/21 10:12:49;;;;;;;0.90;0.32;;;;;;;;;;5006337;28;20077;-69
2024/02/21 10:15:20;;;;;;;3.13;0.35;;;;;;;;;;5006000;28;20033;-68
2024/02/21 10:17:45;;;;;;;1.42;0.45;;;;;;;;;;5005209;28;20117;-69
2024/02/21 10:20:14;;;;;;;2.35;0.50;;;;;;;;;;5004899;28;20124;-70
2024/02/21 10:22:39;;;;;;;5.07;1.00;;;;;;;;;;5020701;28;20155;-68
2024/02/21 10:25:12;;;;;;;3.90;0.95;;;;;;;;;;5005754;28;20117;-69
2024/02/21 10:27:38;;;;;;;3.58;0.60;;;;;;;;;;4998728;28;20029;-70
2024/02/21 10:30:08;;;;;;;3.42;0.80;;;;;;;;;;5005006;28;20038;-68
2024/02/21 10:32:33;;;;;;;1.48;0.77;;;;;;;;;;5004452;28;20038;-68
2024/02/21 10:35:06;;;;;;;0.88;0.47;;;;;;;;;;5006034;28;20026;-68
2024/02/21 10:37:32;;;;;;;0.82;0.47;;;;;;;;;;5006030;28;20604;-68
2024/02/21 10:39:57;;;;;;;0.30;0.30;;;;;;;;;;5004896;28;20034;-68
2024/02/21 10:42:22;;;;;;;1.08;0.35;;;;;;;;;;5005083;28;20155;-68
2024/02/21 10:44:51;;;;;;;2.28;0.60;;;;;;;;;;5005231;28;20057;-68
2024/02/21 10:47:21;;;;;;;1.85;0.40;;;;;;;;;;5003826;28;20148;-68
2024/02/21 10:49:50;;;;;;;3.38;0.80;;;;;;;;;;5003603;28;20465;-68
2024/02/21 10:52:37;;;;;;;4.85;0.88;;;;;;;;;;4991097;28;20120;-69
2024/02/21 10:55:04;;;;;;;5.13;0.80;;;;;;;;;;5005676;28;20046;-68
2024/02/21 10:57:31;;;;;;;1.30;0.43;;;;;;;;;;5007249;28;20049;-68
2024/02/21 10:59:58;;;;;;;2.13;0.70;;;;;;;;;;5006997;28;20087;-68
2024/02/21 11:02:24;;;;;;;1.75;1.10;;;;;;;;;;5023870;28;20041;-68
2024/02/21 11:04:49;;;;;;;2.03;0.90;;;;;;;;;;5005431;28;20600;-69
2024/02/21 11:07:15;;;;;;;3.17;0.88;;;;;;;;;;5026634;28;20076;-68
2024/02/21 11:09:51;;;;;;;1.30;0.60;;;;;;;;;;5026582;28;20045;-68
2024/02/21 11:12:20;;;;;;;0.73;0.60;;;;;;;;;;5028019;28;20034;-68
2024/02/21 11:14:46;;;;;;;0.75;0.47;;;;;;;;;;5010053;28;20049;-68
2024/02/21 11:17:16;;;;;;;4.97;1.00;;;;;;;;;;5027328;28;20045;-69
2024/02/21 11:19:42;;;;;;;3.40;0.57;;;;;;;;;;5026754;28;20041;-69
2024/02/21 11:22:15;;;;;;;1.13;0.52;;;;;;;;;;5027956;28;20057;-68
2024/02/21 11:24:40;;;;;;;2.70;0.67;;;;;;;;;;5025847;28;20063;-70
2024/02/21 11:27:14;;;;;;;0.80;0.50;;;;;;;;;;5028608;28;20366;-69
2024/02/21 11:29:47;;;;;;;1.77;0.93;;;;;;;;;;5027036;28;20056;-71
2024/02/21 11:32:16;;;;;;;3.20;0.60;;;;;;;;;;5028078;28;20037;-69
2024/02/21 11:34:53;;;;;;;4.85;0.73;;;;;;;;;;5026780;28;21015;-70
2024/02/21 11:37:19;;;;;;;0.75;0.50;;;;;;;;;;5026914;28;20025;-68
2024/02/21 11:39:44;;;;;;;1.98;0.55;;;;;;;;;;5025992;28;20164;-69
2024/02/21 11:42:10;;;;;;;1.75;0.60;;;;;;;;;;5027529;28;20045;-69
2024/02/21 11:44:37;;;;;;;1.70;0.30;;;;;;;;;;5024924;28;20532;-69
2024/02/21 11:47:06;;;;;;;0.80;0.40;;;;;;;;;;5028037;28;20076;-68
2024/02/21 11:49:37;;;;;;;1.80;0.50;;;;;;;;;;5026425;28;20099;-70
2024/02/21 11:52:06;;;;;;;0.57;0.35;;;;;;;;;;5024907;28;20030;-70
2024/02/21 11:54:32;;;;;;;3.90;0.95;;;;;;;;;;5027330;28;20559;-68
2024/02/21 11:56:58;;;;;;;1.83;0.93;;;;;;;;;;5028329;28;20034;-69
2024/02/21 11:59:24;;;;;;;2.05;0.50;;;;;;;;;;5026205;28;20044;-70
2024/02/21 12:01:51;;;;;;;0.85;0.47;;;;;;;;;;5027069;28;20117;-70
2024/02/21 12:04:19;;;;;;;1.30;0.60;;;;;;;;;;5026918;28;20025;-69
2024/02/21 12:06:45;;;;;;;1.23;0.65;;;;;;;;;;5027836;28;20049;-69
2024/02/21 12:09:14;;;;;;;1.58;0.47;;;;;;;;;;5028018;28;20065;-70
2024/02/21 12:11:40;;;;;;;2.65;1.15;;;;;;;;;;5009686;28;20490;-71
2024/02/21 12:14:05;;;;;;;2.38;0.75;;;;;;;;;;5019385;28;20068;-70
2024/02/21 12:16:31;;;;;;;2.70;1.10;;;;;;;;;;5025918;28;20033;-68
2024/02/21 12:18:57;;;;;;;3.55;1.50;;;;;;;;;;5021187;28;20057;-69
2024/02/21 12:21:28;;;;;;;4.18;1.63;;;;;;;;;;5026690;28;20100;-69
2024/02/21 12:23:54;;;;;;;3.45;1.20;;;;;;;;;;5025996;28;20066;-69
2024/02/21 12:26:20;;;;;;;4.95;0.85;;;;;;;;;;5026948;28;20030;-69
2024/02/21 12:28:45;;;;;;;1.65;0.50;;;;;;;;;;5027350;28;20041;-71
2024/02/21 12:31:10;;;;;;;1.58;0.88;;;;;;;;;;5025383;28;20030;-70
2024/02/21 12:33:36;;;;;;;3.65;1.23;;;;;;;;;;5026394;28;20644;-70
2024/02/21 12:36:01;;;;;;;3.30;1.02;;;;;;;;;;5026802;28;20041;-70
2024/02/21 12:38:27;;;;;;;3.47;1.00;;;;;;;;;;5026703;28;20037;-69
2024/02/21 12:40:52;;;;;;;2.95;1.10;;;;;;;;;;5026261;28;20061;-70
2024/02/21 12:43:18;;;;;;;1.42;0.90;;;;;;;;;;5027561;28;20374;-69
2024/02/21 12:45:43;;;;;;;5.32;1.63;;;;;;;;;;5026379;28;20895;-70
2024/02/21 12:48:08;;;;;;;2.90;1.30;;;;;;;;;;5026156;28;20577;-69
2024/02/21 12:50:34;;;;;;;3.00;0.88;;;;;;;;;;5024942;28;20080;-69
2024/02/21 12:53:00;;;;;;;2.03;0.90;;;;;;;;;;5020201;28;20041;-70
2024/02/21 12:55:25;;;;;;;3.97;1.05;;;;;;;;;;5021361;28;20662;-69
2024/02/21 12:57:50;;;;;;;1.77;0.95;;;;;;;;;;5027255;28;20942;-70
2024/02/21 13:00:16;;;;;;;2.72;0.80;;;;;;;;;;5025348;28;20033;-70
2024/02/21 13:02:42;;;;;;;1.98;0.70;;;;;;;;;;5023013;28;20044;-69
2024/02/21 13:05:08;;;;;;;2.88;1.10;;;;;;;;;;5020184;28;20073;-70
2024/02/21 13:07:33;;;;;;;0.95;0.50;;;;;;;;;;5006371;28;20144;-69
2024/02/21 13:09:58;;;;;;;0.88;0.45;;;;;;;;;;5008035;28;20036;-69
2024/02/21 13:12:26;;;;;;;1.25;0.63;;;;;;;;;;5026034;28;20550;-70
2024/02/21 13:14:51;;;;;;;2.80;0.60;;;;;;;;;;5024501;28;20037;-69
2024/02/21 13:17:16;;;;;;;0.40;0.30;;;;;;;;;;5025046;28;20022;-69
2024/02/21 13:19:42;;;;;;;3.80;0.50;;;;;;;;;;5026468;28;20420;-69
2024/02/21 13:22:07;;;;;;;0.30;0.30;;;;;;;;;;5022676;28;20060;-70
2024/02/21 13:24:33;;;;;;;1.27;0.70;;;;;;;;;;5024233;28;20033;-69
2024/02/21 13:26:58;;;;;;;1.67;0.60;;;;;;;;;;5012339;28;20037;-69
2024/02/21 13:29:23;;;;;;;2.45;0.40;;;;;;;;;;5018831;28;20044;-71
2024/02/21 13:31:49;;;;;;;0.95;0.50;;;;;;;;;;5025717;28;20498;-69
2024/02/21 13:34:15;;;;;;;0.47;0.40;;;;;;;;;;5025154;28;20296;-69
2024/02/21 13:36:42;;;;;;;0.10;0.10;;;;;;;;;;5025900;28;20051;-69
2024/02/21 13:39:08;;;;;;;0.45;0.40;;;;;;;;;;5025758;28;20454;-69
2024/02/21 13:41:34;;;;;;;0.82;0.60;;;;;;;;;;5025299;28;20044;-69
2024/02/21 13:44:00;;;;;;;1.02;0.60;;;;;;;;;;5024800;28;20037;-69
2024/02/21 13:46:26;;;;;;;0.70;0.50;;;;;;;;;;5025760;28;20029;-69
2024/02/21 13:48:54;;;;;;;0.20;0.20;;;;;;;;;;5024215;28;20088;-68
2024/02/21 13:51:20;;;;;;;5.25;0.52;;;;;;;;;;5007547;28;20032;-68
2024/02/21 13:53:45;;;;;;;1.13;0.60;;;;;;;;;;5023150;28;20381;-69
2024/02/21 13:56:10;;;;;;;1.20;0.50;;;;;;;;;;5025587;28;20129;-70
2024/02/21 13:58:37;;;;;;;0.47;0.32;;;;;;;;;;5023287;28;20033;-68
2024/02/21 14:01:02;;;;;;;1.55;0.50;;;;;;;;;;5025460;28;20052;-68
2024/02/21 14:03:28;;;;;;;5.15;0.50;;;;;;;;;;5023351;28;20041;-70
2024/02/21 14:05:53;;;;;;;1.08;0.40;;;;;;;;;;5025089;28;20052;-68
2024/02/21 14:08:18;;;;;;;0.90;0.30;;;;;;;;;;5025597;28;20040;-70
2024/02/21 14:10:44;;;;;;;0.63;0.40;;;;;;;;;;5025840;28;20037;-70
2024/02/21 14:13:09;;;;;;;0.90;0.40;;;;;;;;;;5024779;28;20976;-70
2024/02/21 14:15:36;;;;;;;0.68;0.30;;;;;;;;;;5025173;28;20033;-70
2024/02/21 14:18:02;;;;;;;2.42;0.63;;;;;;;;;;5025957;28;20040;-68
2024/02/21 14:20:30;;;;;;;1.98;0.50;;;;;;;;;;5024707;28;20054;-70
2024/02/21 14:22:55;;;;;;;1.42;0.60;;;;;;;;;;5025703;28;20540;-68
2024/02/21 14:25:21;;;;;;;3.63;0.50;;;;;;;;;;5024373;28;20037;-68
2024/02/21 14:27:46;;;;;;;2.47;0.52;;;;;;;;;;5024828;28;20029;-69
2024/02/21 14:30:12;;;;;;;3.83;0.95;;;;;;;;;;5027747;28;20032;-69
2024/02/21 14:32:38;;;;;;;1.55;0.75;;;;;;;;;;5026607;28;20041;-69
2024/02/21 14:35:03;;;;;;;2.17;0.55;;;;;;;;;;5010226;28;20503;-70